Time,TemperatureF,DewpointF,PressureIn,WindDirection,WindDirectionDegrees,WindSpeedMPH,WindSpeedGustMPH,Humidity,HourlyPrecipIn,Conditions,Clouds,dailyrainin,SoftwareType,DateUTC
2014-09-21 00:00:00,55.4,45.8,29.91,NNW,343,0.0,0.0,70,0.00,,---,0.00,VWS V14.00,2014-09-21 07:00:00,
2014-09-21 00:05:00,55.2,46.0,29.91,NNW,343,0.0,0.0,71,0.00,,---,0.00,VWS V14.00,2014-09-21 07:05:00,
2014-09-21 00:10:00,55.0,45.8,29.91,NNW,343,0.0,0.0,71,0.00,,---,0.00,VWS V14.00,2014-09-21 07:10:00,
2014-09-21 00:15:00,55.0,45.8,29.91,NNW,343,0.0,0.0,71,0.00,,---,0.00,VWS V14.00,2014-09-21 07:15:00,
2014-09-21 00:20:00,55.0,45.8,29.91,NNW,343,0.0,0.0,71,0.00,,---,0.00,VWS V14.00,2014-09-21 07:20:00,
2014-09-21 00:25:00,55.0,45.8,29.91,NNW,343,0.0,0.0,71,0.00,,---,0.00,VWS V14.00,2014-09-21 07:25:00,
2014-09-21 00:30:00,54.9,45.7,29.91,NNW,343,0.0,0.0,71,0.00,,---,0.00,VWS V14.00,2014-09-21 07:30:00,
2014-09-21 00:35:00,54.7,45.5,29.91,NNW,343,0.0,0.0,71,0.00,,---,0.00,VWS V14.00,2014-09-21 07:35:00,
2014-09-21 00:40:00,54.5,45.3,29.91,NNW,343,0.0,0.0,71,0.00,,---,0.00,VWS V14.00,2014-09-21 07:40:00,
2014-09-21 00:45:00,54.3,45.5,29.91,NNW,343,0.0,0.0,72,0.00,,---,0.00,VWS V14.00,2014-09-21 07:45:00,
2014-09-21 00:50:00,54.1,45.3,29.91,NNW,343,0.0,0.0,72,0.00,,---,0.00,VWS V14.00,2014-09-21 07:50:00,
2014-09-21 00:55:00,54.0,45.2,29.91,NNW,343,0.0,0.0,72,0.00,,---,0.00,VWS V14.00,2014-09-21 07:55:00,
2014-09-21 01:00:00,53.6,44.8,29.91,NNW,343,0.0,0.0,72,0.00,,---,0.00,VWS V14.00,2014-09-21 08:00:00,
2014-09-21 01:05:00,53.4,44.6,29.91,NNW,343,0.0,0.0,72,0.00,,---,0.00,VWS V14.00,2014-09-21 08:05:00,
2014-09-21 01:10:00,53.1,44.3,29.91,NNW,343,0.0,0.0,72,0.00,,---,0.00,VWS V14.00,2014-09-21 08:10:00,
2014-09-21 01:15:00,53.1,44.3,29.91,NNW,343,0.0,0.0,72,0.00,,---,0.00,VWS V14.00,2014-09-21 08:15:00,
2014-09-21 01:20:00,53.1,44.7,29.88,North,349,0.0,0.0,73,0.00,,---,0.00,VWS V14.00,2014-09-21 08:20:00,
2014-09-21 01:25:00,52.9,44.5,29.88,North,349,0.0,0.0,73,0.00,,---,0.00,VWS V14.00,2014-09-21 08:25:00,
2014-09-21 01:30:00,52.7,44.3,29.88,North,349,0.0,0.0,73,0.00,,---,0.00,VWS V14.00,2014-09-21 08:30:00,
2014-09-21 01:35:00,52.9,44.5,29.88,North,349,0.0,0.0,73,0.00,,---,0.00,VWS V14.00,2014-09-21 08:35:00,
2014-09-21 01:40:00,53.2,45.2,29.91,North,349,0.0,0.0,74,0.00,,---,0.00,VWS V14.00,2014-09-21 08:40:00,
2014-09-21 01:45:00,53.1,44.7,29.91,North,349,0.0,0.0,73,0.00,,---,0.00,VWS V14.00,2014-09-21 08:45:00,
2014-09-21 01:47:00,53.1,44.7,29.91,North,357,0.0,0.0,73,0.00,,---,0.00,VWS V14.00,2014-09-21 08:47:00,
2014-09-21 01:52:00,52.7,44.3,29.88,North,357,0.0,0.0,73,0.00,,---,0.00,VWS V14.00,2014-09-21 08:52:00,
2014-09-21 01:57:00,52.7,44.7,29.88,North,357,0.0,0.0,74,0.00,,---,0.00,VWS V14.00,2014-09-21 08:57:00,
2014-09-21 02:02:00,52.7,44.7,29.88,North,357,0.0,0.0,74,0.00,,---,0.00,VWS V14.00,2014-09-21 09:02:00,
2014-09-21 02:07:00,52.7,44.7,29.88,North,357,0.0,0.0,74,0.00,,---,0.00,VWS V14.00,2014-09-21 09:07:00,
2014-09-21 02:12:00,52.7,44.7,29.88,North,357,0.0,0.0,74,0.00,,---,0.00,VWS V14.00,2014-09-21 09:12:00,
2014-09-21 02:17:00,52.5,44.5,29.88,North,357,0.0,0.0,74,0.00,,---,0.00,VWS V14.00,2014-09-21 09:17:00,
2014-09-21 02:22:00,52.5,44.5,29.88,North,357,0.0,0.0,74,0.00,,---,0.00,VWS V14.00,2014-09-21 09:22:00,
2014-09-21 02:27:00,52.3,44.3,29.88,North,357,0.0,0.0,74,0.00,,---,0.00,VWS V14.00,2014-09-21 09:27:00,
2014-09-21 02:32:00,52.7,45.0,29.88,North,357,0.0,0.0,75,0.00,,---,0.00,VWS V14.00,2014-09-21 09:32:00,
2014-09-21 02:37:00,52.7,45.0,29.88,North,357,0.0,0.0,75,0.00,,---,0.00,VWS V14.00,2014-09-21 09:37:00,
2014-09-21 02:42:00,52.9,45.2,29.88,North,357,0.0,0.0,75,0.00,,---,0.00,VWS V14.00,2014-09-21 09:42:00,
2014-09-21 02:47:00,52.7,45.0,29.88,North,357,0.0,0.0,75,0.00,,---,0.00,VWS V14.00,2014-09-21 09:47:00,
2014-09-21 02:52:00,52.5,44.8,29.88,North,357,0.0,0.0,75,0.00,,---,0.00,VWS V14.00,2014-09-21 09:52:00,
2014-09-21 02:57:00,52.7,45.0,29.88,NNE,29,0.0,0.0,75,0.00,,---,0.00,VWS V14.00,2014-09-21 09:57:00,
2014-09-21 03:02:00,52.7,45.0,29.88,NNE,31,0.0,4.0,75,0.00,,---,0.00,VWS V14.00,2014-09-21 10:02:00,
2014-09-21 03:07:00,52.7,45.0,29.88,ENE,76,0.0,4.0,75,0.00,,---,0.00,VWS V14.00,2014-09-21 10:07:00,
2014-09-21 03:12:00,52.7,45.4,29.88,NE,46,0.0,2.7,76,0.00,,---,0.00,VWS V14.00,2014-09-21 10:12:00,
2014-09-21 03:17:00,52.5,44.8,29.88,NE,45,0.0,0.0,75,0.00,,---,0.00,VWS V14.00,2014-09-21 10:17:00,
2014-09-21 03:22:00,52.5,45.2,29.88,NE,49,0.0,0.0,76,0.00,,---,0.00,VWS V14.00,2014-09-21 10:22:00,
2014-09-21 03:27:00,52.9,45.5,29.88,ENE,65,0.0,0.0,76,0.00,,---,0.00,VWS V14.00,2014-09-21 10:27:00,
2014-09-21 03:32:00,53.4,46.7,29.88,ESE,104,0.0,3.1,78,0.00,,---,0.00,VWS V14.00,2014-09-21 10:32:00,
2014-09-21 03:37:00,53.8,46.8,29.88,ESE,104,0.0,3.1,77,0.00,,---,0.00,VWS V14.00,2014-09-21 10:37:00,
2014-09-21 03:40:00,54.3,47.6,29.88,ESE,113,0.0,0.0,78,0.00,,---,0.00,VWS V14.00,2014-09-21 10:40:00,
2014-09-21 03:45:00,54.9,48.1,29.88,ENE,74,4.0,4.0,78,0.00,,---,0.00,VWS V14.00,2014-09-21 10:45:00,
2014-09-21 03:46:00,55.0,48.3,29.88,ENE,74,0.0,4.0,78,0.00,,---,0.00,VWS V14.00,2014-09-21 10:46:00,
2014-09-21 03:51:00,55.2,48.5,29.88,ENE,74,0.0,4.0,78,0.00,,---,0.00,VWS V14.00,2014-09-21 10:51:00,
2014-09-21 03:56:00,55.2,48.2,29.88,ENE,61,0.0,0.0,77,0.00,,---,0.00,VWS V14.00,2014-09-21 10:56:00,
2014-09-21 04:01:00,54.7,47.6,29.88,NNE,19,3.6,3.6,77,0.00,,---,0.00,VWS V14.00,2014-09-21 11:01:00,
2014-09-21 04:06:00,54.3,47.3,29.88,NNE,22,0.0,5.6,77,0.00,,---,0.00,VWS V14.00,2014-09-21 11:06:00,
2014-09-21 04:11:00,53.8,46.4,29.88,NNE,22,0.0,5.6,76,0.00,,---,0.00,VWS V14.00,2014-09-21 11:11:00,
2014-09-21 04:16:00,53.2,45.9,29.88,NNE,22,0.0,0.0,76,0.00,,---,0.00,VWS V14.00,2014-09-21 11:16:00,
2014-09-21 04:21:00,52.7,45.4,29.88,NE,38,0.0,0.0,76,0.00,,---,0.00,VWS V14.00,2014-09-21 11:21:00,
2014-09-21 04:26:00,52.5,45.5,29.88,NNE,25,0.0,2.7,77,0.00,,---,0.00,VWS V14.00,2014-09-21 11:26:00,
2014-09-21 04:31:00,52.5,45.5,29.88,NNE,25,0.0,2.7,77,0.00,,---,0.00,VWS V14.00,2014-09-21 11:31:00,
2014-09-21 04:36:00,52.7,45.7,29.88,NNE,25,0.0,2.7,77,0.00,,---,0.00,VWS V14.00,2014-09-21 11:36:00,
2014-09-21 04:41:00,52.3,45.3,29.88,NNE,25,0.0,0.0,77,0.00,,---,0.00,VWS V14.00,2014-09-21 11:41:00,
2014-09-21 04:45:00,52.2,45.2,29.88,NNE,25,0.0,0.0,77,0.00,,---,0.00,VWS V14.00,2014-09-21 11:45:00,
2014-09-21 04:50:00,52.2,45.5,29.85,NNE,25,0.0,0.0,78,0.00,,---,0.00,VWS V14.00,2014-09-21 11:50:00,
2014-09-21 04:55:00,52.2,45.5,29.85,NNE,29,0.0,0.0,78,0.00,,---,0.00,VWS V14.00,2014-09-21 11:55:00,
2014-09-21 05:00:00,52.2,45.5,29.85,ESE,110,0.0,2.7,78,0.00,,---,0.00,VWS V14.00,2014-09-21 12:00:00,
2014-09-21 05:05:00,52.3,45.7,29.85,East,79,0.0,2.7,78,0.00,,---,0.00,VWS V14.00,2014-09-21 12:05:00,
2014-09-21 05:10:00,52.7,46.0,29.85,NE,52,0.0,0.0,78,0.00,,---,0.00,VWS V14.00,2014-09-21 12:10:00,
2014-09-21 05:15:00,53.1,46.7,29.85,ENE,75,0.0,0.0,79,0.00,,---,0.00,VWS V14.00,2014-09-21 12:15:00,
2014-09-21 05:20:00,53.6,47.3,29.85,ESE,112,0.0,4.0,79,0.00,,---,0.00,VWS V14.00,2014-09-21 12:20:00,
2014-09-21 05:25:00,54.3,48.0,29.85,ENE,63,0.0,4.7,79,0.00,,---,0.00,VWS V14.00,2014-09-21 12:25:00,
2014-09-21 05:30:00,54.5,48.1,29.85,ENE,63,0.0,4.7,79,0.00,,---,0.00,VWS V14.00,2014-09-21 12:30:00,
2014-09-21 05:35:00,54.5,48.1,29.85,ENE,70,0.0,0.0,79,0.00,,---,0.00,VWS V14.00,2014-09-21 12:35:00,
2014-09-21 05:40:00,54.7,48.3,29.85,ENE,70,0.0,0.0,79,0.00,,---,0.00,VWS V14.00,2014-09-21 12:40:00,
2014-09-21 05:45:00,55.4,49.0,29.85,NE,45,0.0,4.7,79,0.00,,---,0.00,VWS V14.00,2014-09-21 12:45:00,
2014-09-21 05:48:00,55.4,49.0,29.85,NE,54,0.0,4.7,79,0.00,,---,0.00,VWS V14.00,2014-09-21 12:48:00,
2014-09-21 05:53:00,55.8,49.4,29.85,NE,43,0.0,5.1,79,0.00,,---,0.00,VWS V14.00,2014-09-21 12:53:00,
2014-09-21 05:58:00,55.8,49.0,29.85,North,10,0.0,5.1,78,0.00,,---,0.00,VWS V14.00,2014-09-21 12:58:00,
2014-09-21 06:03:00,55.9,49.2,29.85,NE,56,2.7,5.1,78,0.00,,---,0.00,VWS V14.00,2014-09-21 13:03:00,
2014-09-21 06:08:00,56.3,49.5,29.88,ENE,58,0.0,5.6,78,0.00,,---,0.00,VWS V14.00,2014-09-21 13:08:00,
2014-09-21 06:13:00,56.7,49.9,29.88,ESE,107,0.0,6.5,78,0.00,,---,0.00,VWS V14.00,2014-09-21 13:13:00,
2014-09-21 06:18:00,57.0,49.9,29.88,East,84,2.7,6.5,77,0.00,,---,0.00,VWS V14.00,2014-09-21 13:18:00,
2014-09-21 06:23:00,57.2,49.7,29.88,East,94,3.6,6.5,76,0.00,,---,0.00,VWS V14.00,2014-09-21 13:23:00,
2014-09-21 06:28:00,57.2,49.0,29.88,East,85,3.1,6.9,74,0.00,,---,0.00,VWS V14.00,2014-09-21 13:28:00,
2014-09-21 06:33:00,57.6,48.6,29.88,ESE,108,4.7,7.8,72,0.00,,---,0.00,VWS V14.00,2014-09-21 13:33:00,
2014-09-21 06:38:00,58.5,47.6,29.88,ENE,78,2.7,8.3,67,0.00,,---,0.00,VWS V14.00,2014-09-21 13:38:00,
2014-09-21 06:43:00,58.5,46.8,29.88,ESE,113,3.1,8.3,65,0.00,,---,0.00,VWS V14.00,2014-09-21 13:43:00,
2014-09-21 06:48:00,58.5,45.9,29.88,East,94,0.0,8.3,63,0.00,,---,0.00,VWS V14.00,2014-09-21 13:48:00,
2014-09-21 06:53:00,58.5,44.6,29.88,ENE,63,4.7,7.8,60,0.00,,---,0.00,VWS V14.00,2014-09-21 13:53:00,
2014-09-21 06:58:00,58.8,43.2,29.88,ESE,118,4.5,7.8,56,0.00,,---,0.00,VWS V14.00,2014-09-21 13:58:00,
2014-09-21 07:03:00,58.8,43.2,29.88,ENE,75,3.1,7.8,56,0.00,,---,0.00,VWS V14.00,2014-09-21 14:03:00,
2014-09-21 07:08:00,58.8,43.2,29.88,ENE,71,2.7,6.0,56,0.00,,---,0.00,VWS V14.00,2014-09-21 14:08:00,
2014-09-21 07:13:00,58.8,42.7,29.88,East,88,4.5,6.5,55,0.00,,---,0.00,VWS V14.00,2014-09-21 14:13:00,
2014-09-21 07:18:00,59.0,41.9,29.88,NE,51,4.7,6.5,53,0.00,,---,0.00,VWS V14.00,2014-09-21 14:18:00,
2014-09-21 07:23:00,60.3,42.1,29.88,East,93,3.1,6.0,51,0.00,,---,0.00,VWS V14.00,2014-09-21 14:23:00,
2014-09-21 07:28:00,62.1,41.6,29.88,SE,139,3.6,6.9,47,0.00,,---,0.00,VWS V14.00,2014-09-21 14:28:00,
2014-09-21 07:32:00,63.7,42.0,29.88,East,84,2.7,6.9,45,0.00,,---,0.00,VWS V14.00,2014-09-21 14:32:00,
2014-09-21 07:37:00,65.3,42.8,29.88,ENE,78,4.0,6.0,44,0.00,,---,0.00,VWS V14.00,2014-09-21 14:37:00,
2014-09-21 07:42:00,66.4,42.0,29.88,ENE,76,4.0,6.0,41,0.00,,---,0.00,VWS V14.00,2014-09-21 14:42:00,
2014-09-21 07:47:00,67.3,40.8,29.88,ESE,102,4.5,6.0,38,0.00,,---,0.00,VWS V14.00,2014-09-21 14:47:00,
2014-09-21 07:52:00,67.6,40.5,29.88,East,96,4.5,6.9,37,0.00,,---,0.00,VWS V14.00,2014-09-21 14:52:00,
2014-09-21 07:57:00,67.5,38.9,29.88,NE,46,0.0,8.9,35,0.00,,---,0.00,VWS V14.00,2014-09-21 14:57:00,
2014-09-21 08:02:00,67.5,38.9,29.88,NNE,32,0.0,8.9,35,0.00,,---,0.00,VWS V14.00,2014-09-21 15:02:00,
2014-09-21 08:07:00,66.7,37.5,29.88,ENE,76,6.5,7.4,34,0.00,,---,0.00,VWS V14.00,2014-09-21 15:07:00,
2014-09-21 08:12:00,66.4,37.9,29.88,East,93,0.0,6.9,35,0.00,,---,0.00,VWS V14.00,2014-09-21 15:12:00,
2014-09-21 08:17:00,66.6,38.8,29.88,East,82,4.5,6.5,36,0.00,,---,0.00,VWS V14.00,2014-09-21 15:17:00,
2014-09-21 08:22:00,66.6,38.1,29.88,ESE,104,3.1,6.0,35,0.00,,---,0.00,VWS V14.00,2014-09-21 15:22:00,
2014-09-21 08:27:00,66.6,37.3,29.88,NNE,30,3.1,7.8,34,0.00,,---,0.00,VWS V14.00,2014-09-21 15:27:00,
2014-09-21 08:32:00,66.7,39.0,29.88,ENE,68,3.6,7.8,36,0.00,,---,0.00,VWS V14.00,2014-09-21 15:32:00,
2014-09-21 08:37:00,67.1,39.3,29.88,NE,48,8.3,8.9,36,0.00,,---,0.00,VWS V14.00,2014-09-21 15:37:00,
2014-09-21 08:42:00,67.3,38.7,29.88,NE,38,4.5,8.9,35,0.00,,---,0.00,VWS V14.00,2014-09-21 15:42:00,
2014-09-21 08:43:00,67.5,38.9,29.88,ENE,73,6.5,8.9,35,0.00,,---,0.00,VWS V14.00,2014-09-21 15:43:00,
2014-09-21 08:48:00,67.8,38.5,29.88,ENE,71,5.6,8.3,34,0.00,,---,0.00,VWS V14.00,2014-09-21 15:48:00,
2014-09-21 08:53:00,67.8,38.5,29.88,East,94,4.5,7.4,34,0.00,,---,0.00,VWS V14.00,2014-09-21 15:53:00,
2014-09-21 08:58:00,68.0,37.8,29.88,East,99,5.1,9.4,33,0.00,,---,0.00,VWS V14.00,2014-09-21 15:58:00,
2014-09-21 09:03:00,68.2,38.0,29.88,ENE,77,3.1,9.4,33,0.00,,---,0.00,VWS V14.00,2014-09-21 16:03:00,
2014-09-21 09:08:00,68.7,39.2,29.88,NE,55,6.5,9.4,34,0.00,,---,0.00,VWS V14.00,2014-09-21 16:08:00,
2014-09-21 09:13:00,68.9,38.6,29.88,East,91,2.7,6.5,33,0.00,,---,0.00,VWS V14.00,2014-09-21 16:13:00,
2014-09-21 09:18:00,69.3,39.0,29.88,ENE,78,0.0,6.5,33,0.00,,---,0.00,VWS V14.00,2014-09-21 16:18:00,
2014-09-21 09:23:00,69.6,39.3,29.88,ENE,64,5.6,7.4,33,0.00,,---,0.00,VWS V14.00,2014-09-21 16:23:00,
2014-09-21 09:28:00,69.8,38.6,29.88,ESE,108,6.9,7.4,32,0.00,,---,0.00,VWS V14.00,2014-09-21 16:28:00,
2014-09-21 09:33:00,70.0,38.8,29.88,ENE,69,4.5,7.4,32,0.00,,---,0.00,VWS V14.00,2014-09-21 16:33:00,
2014-09-21 09:38:00,70.3,38.3,29.88,East,82,3.6,7.4,31,0.00,,---,0.00,VWS V14.00,2014-09-21 16:38:00,
2014-09-21 09:43:00,70.5,35.9,29.88,ESE,104,6.9,8.9,28,0.00,,---,0.00,VWS V14.00,2014-09-21 16:43:00,
2014-09-21 09:48:00,70.5,35.9,29.88,NE,49,7.4,8.9,28,0.00,,---,0.00,VWS V14.00,2014-09-21 16:48:00,
2014-09-21 09:53:00,70.7,36.9,29.88,NE,38,3.1,8.3,29,0.00,,---,0.00,VWS V14.00,2014-09-21 16:53:00,
2014-09-21 09:58:00,71.4,38.4,29.88,North,3,2.7,8.3,30,0.00,,---,0.00,VWS V14.00,2014-09-21 16:58:00,
2014-09-21 10:03:00,72.0,37.1,29.88,East,98,6.0,6.9,28,0.00,,---,0.00,VWS V14.00,2014-09-21 17:03:00,
2014-09-21 10:08:00,72.3,37.4,29.88,ENE,74,5.1,7.4,28,0.00,,---,0.00,VWS V14.00,2014-09-21 17:08:00,
2014-09-21 10:13:00,72.9,37.9,29.88,ENE,72,5.6,7.8,28,0.00,,---,0.00,VWS V14.00,2014-09-21 17:13:00,
2014-09-21 10:18:00,73.0,36.2,29.88,ENE,60,6.5,7.8,26,0.00,,---,0.00,VWS V14.00,2014-09-21 17:18:00,
2014-09-21 10:23:00,73.2,36.3,29.88,NNE,15,6.5,7.4,26,0.00,,---,0.00,VWS V14.00,2014-09-21 17:23:00,
2014-09-21 10:28:00,73.4,36.5,29.88,NE,49,5.6,11.2,26,0.00,,---,0.00,VWS V14.00,2014-09-21 17:28:00,
2014-09-21 10:33:00,73.2,35.3,29.88,East,87,7.4,12.5,25,0.00,,---,0.00,VWS V14.00,2014-09-21 17:33:00,
2014-09-21 10:38:00,73.0,36.2,29.85,East,101,4.7,12.5,26,0.00,,---,0.00,VWS V14.00,2014-09-21 17:38:00,
2014-09-21 10:43:00,73.0,35.2,29.85,East,92,8.9,9.8,25,0.00,,---,0.00,VWS V14.00,2014-09-21 17:43:00,
2014-09-21 10:48:00,72.7,34.9,29.85,ENE,68,6.5,10.7,25,0.00,,---,0.00,VWS V14.00,2014-09-21 17:48:00,
2014-09-21 10:53:00,72.9,35.0,29.85,SE,125,6.0,10.7,25,0.00,,---,0.00,VWS V14.00,2014-09-21 17:53:00,
2014-09-21 10:58:00,73.0,36.2,29.85,SE,138,6.5,8.7,26,0.00,,---,0.00,VWS V14.00,2014-09-21 17:58:00,
2014-09-21 11:00:00,73.4,35.5,29.85,SE,131,4.0,8.7,25,0.00,,---,0.00,VWS V14.00,2014-09-21 18:00:00,
2014-09-21 11:05:00,73.9,35.9,29.85,ENE,77,4.0,8.7,25,0.00,,---,0.00,VWS V14.00,2014-09-21 18:05:00,
2014-09-21 11:10:00,74.7,36.5,29.85,ESE,112,7.4,8.3,25,0.00,,---,0.00,VWS V14.00,2014-09-21 18:10:00,
2014-09-21 11:15:00,75.2,37.0,29.85,ENE,76,5.6,8.3,25,0.00,,---,0.00,VWS V14.00,2014-09-21 18:15:00,
2014-09-21 11:16:00,75.4,37.2,29.85,NE,56,0.0,8.3,25,0.00,,---,0.00,VWS V14.00,2014-09-21 18:16:00,
2014-09-21 11:21:00,75.9,39.6,29.85,NNE,23,0.0,6.5,27,0.00,,---,0.00,VWS V14.00,2014-09-21 18:21:00,
2014-09-21 11:26:00,76.8,40.3,29.85,ESE,115,4.7,5.6,27,0.00,,---,0.00,VWS V14.00,2014-09-21 18:26:00,
2014-09-21 11:31:00,77.2,37.6,29.85,SE,133,6.0,6.9,24,0.00,,---,0.00,VWS V14.00,2014-09-21 18:31:00,
2014-09-21 11:36:00,77.4,37.8,29.85,ESE,110,0.0,6.9,24,0.00,,---,0.00,VWS V14.00,2014-09-21 18:36:00,